Time;durP1;ratioP1;P1;durP2;ratioP2;P2;SDS_P1;SDS_P2;PMS_P1;PMS_P2;Temp;Humidity;BMP_temperature;BMP_pressure;BME280_temperature;BME280_humidity;BME280_pressure;Samples;Min_cycle;Max_cycle;Signal;HPM_P1;HPM_P2
2022/12/23 00:01:18;;;;;;;3.28;1.60;;;;;;;17.51;61.31;99730.75;5051069;28;20405;-74
2022/12/23 00:03:44;;;;;;;2.95;1.65;;;;;;;17.53;61.26;99726.28;5052141;28;20028;-74
2022/12/23 00:06:15;;;;;;;3.22;1.73;;;;;;;17.53;61.40;99723.66;5052368;28;20025;-75
2022/12/23 00:08:41;;;;;;;2.83;1.75;;;;;;;17.52;61.21;99729.81;5052266;28;20041;-75
2022/12/23 00:11:12;;;;;;;3.75;2.00;;;;;;;17.52;61.18;99735.09;5051088;28;20060;-74
2022/12/23 00:16:21;;;;;;;3.50;1.70;;;;;;;17.53;61.10;99731.56;5051843;28;20083;-74
2022/12/23 00:18:47;;;;;;;3.15;1.80;;;;;;;17.52;61.40;99738.59;5052353;28;20029;-74
2022/12/23 00:21:14;;;;;;;3.55;1.90;;;;;;;17.55;61.37;99742.91;5052169;28;20029;-74
2022/12/23 00:23:44;;;;;;;3.47;1.70;;;;;;;17.53;61.14;99736.84;5052178;28;20520;-74
2022/12/23 00:26:14;;;;;;;3.80;1.90;;;;;;;17.53;61.36;99736.84;5052145;28;20036;-75
2022/12/23 00:28:39;;;;;;;3.45;1.77;;;;;;;17.55;61.13;99734.97;5052228;28;20037;-74
2022/12/23 00:31:06;;;;;;;2.08;1.20;;;;;;;17.53;61.03;99718.38;5052013;28;20029;-74
2022/12/23 00:33:39;;;;;;;3.40;1.88;;;;;;;17.54;61.08;99715.66;5052231;28;20083;-74
2022/12/23 00:36:18;;;;;;;3.10;1.88;;;;;;;17.55;61.28;99713.88;5052080;28;20048;-74
2022/12/23 00:44:12;;;;;;;5.00;1.92;;;;;;;17.53;61.10;99726.28;5054067;28;20079;-74
2022/12/23 00:46:38;;;;;;;2.80;1.60;;;;;;;17.54;61.25;99725.34;5055393;28;20025;-74
2022/12/23 00:51:48;;;;;;;3.47;1.88;;;;;;;17.53;61.36;99726.28;5055676;28;20404;-74
2022/12/23 00:54:13;;;;;;;2.75;1.60;;;;;;;17.53;61.12;99711.28;5055443;28;20024;-74
2022/12/23 00:56:39;;;;;;;2.83;1.50;;;;;;;17.53;61.49;99703.38;5055394;28;20036;-75
2022/12/23 00:59:05;;;;;;;2.72;1.60;;;;;;;17.55;61.41;99713.88;5055206;28;20021;-74
2022/12/23 01:07:01;;;;;;;3.60;1.60;;;;;;;17.52;61.44;99724.53;5055534;28;20075;-74
2022/12/23 01:09:26;;;;;;;3.00;1.65;;;;;;;17.52;61.25;99725.41;5055248;28;20064;-74
2022/12/23 01:11:52;;;;;;;2.50;1.35;;;;;;;17.52;61.26;99720.13;5055262;28;20052;-74
2022/12/23 01:14:18;;;;;;;2.70;1.52;;;;;;;17.52;61.12;99712.22;5054776;28;20055;-74
2022/12/23 01:16:44;;;;;;;2.97;1.63;;;;;;;17.54;61.29;99714.81;5054897;28;20041;-74
2022/12/23 01:19:10;;;;;;;3.03;1.63;;;;;;;17.53;61.03;99715.72;5055302;28;20021;-74
2022/12/23 01:21:35;;;;;;;2.90;1.58;;;;;;;17.53;61.28;99721.84;5055040;28;20108;-74
2022/12/23 01:24:01;;;;;;;3.67;1.90;;;;;;;17.53;61.01;99721.00;5054915;28;20033;-74
2022/12/23 01:26:27;;;;;;;3.85;1.88;;;;;;;17.53;61.04;99721.00;5055099;28;20029;-74
2022/12/23 01:28:54;;;;;;;3.70;1.88;;;;;;;17.53;61.25;99740.31;5054673;28;20090;-74
2022/12/23 01:31:20;;;;;;;2.72;1.80;;;;;;;17.53;61.22;99747.41;5054825;28;20029;-74
2022/12/23 01:33:46;;;;;;;3.50;1.90;;;;;;;17.52;61.17;99743.00;5054818;28;20040;-74
2022/12/23 01:36:12;;;;;;;3.65;1.67;;;;;;;17.54;61.03;99738.56;5054736;28;20044;-74
2022/12/23 01:38:37;;;;;;;2.95;1.60;;;;;;;17.54;61.03;99743.81;5054689;28;20025;-74
2022/12/23 01:41:03;;;;;;;3.53;1.80;;;;;;;17.53;61.22;99747.41;5054680;28;20029;-74
2022/12/23 01:43:48;;;;;;;3.85;2.03;;;;;;;17.53;61.42;99740.31;5054235;28;20039;-74
2022/12/23 01:46:14;;;;;;;3.35;1.58;;;;;;;17.54;61.04;99731.47;5054548;28;20480;-74
2022/12/23 01:48:42;;;;;;;3.67;1.88;;;;;;;17.52;61.15;99741.25;5054314;28;20036;-74
2022/12/23 01:51:13;;;;;;;3.70;1.80;;;;;;;17.52;61.30;99729.81;5054559;28;20033;-74
2022/12/23 01:53:44;;;;;;;2.58;1.30;;;;;;;17.53;61.23;99723.66;5054212;28;20029;-74
2022/12/23 01:56:16;;;;;;;2.78;1.77;;;;;;;17.52;61.05;99732.47;5053813;28;20033;-74
2022/12/23 01:58:55;;;;;;;3.63;2.10;;;;;;;17.53;61.07;99726.28;5053959;28;20025;-74
2022/12/23 02:04:09;;;;;;;3.97;1.70;;;;;;;17.53;61.39;99726.28;5054127;28;20040;-74
2022/12/23 02:09:29;;;;;;;2.80;1.63;;;;;;;17.52;61.03;99732.47;5054271;28;20389;-74
2022/12/23 02:12:16;;;;;;;3.80;1.95;;;;;;;17.51;60.98;99738.66;5053879;28;20029;-74
2022/12/23 02:17:53;;;;;;;4.20;2.00;;;;;;;17.52;61.34;99735.09;5053816;28;19970;-74
2022/12/23 02:20:43;;;;;;;3.60;1.95;;;;;;;17.52;61.35;99737.75;5054146;28;20025;-74
2022/12/23 02:23:26;;;;;;;3.15;1.48;;;;;;;17.52;61.29;99735.09;5053910;28;20028;-74
2022/12/23 02:25:52;;;;;;;3.42;1.80;;;;;;;17.50;61.35;99722.00;5054054;28;20481;-74
2022/12/23 02:28:35;;;;;;;4.22;1.60;;;;;;;17.51;61.06;99728.09;5057388;28;20021;-75
2022/12/23 02:31:21;;;;;;;4.45;1.58;;;;;;;17.51;61.06;99722.84;5057408;28;20098;-73
2022/12/23 02:33:59;;;;;;;3.38;1.80;;;;;;;17.51;61.32;99717.56;5058454;28;20029;-74
2022/12/23 02:36:43;;;;;;;3.33;1.65;;;;;;;17.50;61.16;99722.00;5058386;28;20083;-74
2022/12/23 02:39:25;;;;;;;3.42;1.70;;;;;;;17.49;61.20;99720.28;5058023;28;20397;-74
2022/12/23 02:42:02;;;;;;;2.88;1.70;;;;;;;17.50;61.14;99721.13;5055060;28;20425;-74
2022/12/23 02:45:09;;;;;;;3.17;1.70;;;;;;;17.48;61.21;99728.25;5054782;28;20116;-74
2022/12/23 02:47:40;;;;;;;;;;;;;;;17.51;61.13;99728.09;5012876;28;20053;-74
2022/12/23 02:50:14;;;;;;;3.15;1.70;;;;;;;17.49;61.35;99722.06;5012317;28;20349;-74
2022/12/23 02:52:41;;;;;;;3.60;1.73;;;;;;;17.49;61.29;99724.69;4995808;28;20046;-74
2022/12/23 02:55:19;;;;;;;3.00;1.75;;;;;;;17.48;61.16;99729.09;5011751;28;20041;-75
2022/12/23 02:57:48;;;;;;;2.63;1.40;;;;;;;17.51;61.31;99726.34;4995675;28;20422;-72
2022/12/23 03:00:14;;;;;;;2.83;1.65;;;;;;;17.49;61.37;99735.25;5011837;28;20038;-74
2022/12/23 03:02:41;;;;;;;4.03;1.80;;;;;;;17.49;61.23;99741.38;4995293;28;20041;-74
2022/12/23 03:05:43;;;;;;;2.55;1.48;;;;;;;17.50;61.33;99736.97;5011524;28;20129;-74
2022/12/23 03:08:21;;;;;;;3.25;1.73;;;;;;;17.49;61.26;99740.53;4971717;28;20038;-74
2022/12/23 03:11:05;;;;;;;3.28;1.52;;;;;;;17.49;61.25;99736.13;4972181;28;20047;-74
2022/12/23 03:13:49;;;;;;;3.47;1.92;;;;;;;17.48;61.14;99729.09;4972479;28;20042;-74
2022/12/23 03:17:17;;;;;;;3.97;1.65;;;;;;;17.49;61.22;99724.69;4961329;28;20207;-74
2022/12/23 03:19:53;;;;;;;3.55;1.67;;;;;;;17.49;61.08;99724.69;4858741;29;20041;-75
2022/12/23 03:22:37;;;;;;;4.00;2.13;;;;;;;17.45;60.97;99724.81;4858691;29;20131;-73
2022/12/23 03:25:24;;;;;;;3.58;1.83;;;;;;;17.47;61.15;99730.03;4874582;29;20152;-74
2022/12/23 03:27:57;;;;;;;3.03;1.50;;;;;;;17.47;61.31;99731.81;4877115;29;20040;-74
2022/12/23 03:30:24;;;;;;;3.92;1.75;;;;;;;17.47;61.04;99721.28;4877209;29;20596;-74
2022/12/23 03:32:57;;;;;;;3.08;1.88;;;;;;;17.45;61.21;99714.25;4876996;29;20041;-74
2022/12/23 03:35:28;;;;;;;3.33;1.80;;;;;;;17.48;61.00;99712.44;4861292;29;20491;-74
2022/12/23 03:37:57;;;;;;;2.83;1.60;;;;;;;17.47;60.96;99710.72;4861391;29;20040;-74
2022/12/23 03:40:29;;;;;;;3.25;1.52;;;;;;;17.44;61.05;99712.53;4876695;29;20529;-74
2022/12/23 03:43:03;;;;;;;3.75;1.73;;;;;;;17.44;61.31;99712.53;4940102;29;20043;-74
2022/12/23 03:45:37;;;;;;;3.05;1.60;;;;;;;17.45;60.92;99703.69;4952590;28;20045;-74
2022/12/23 03:48:07;;;;;;;3.28;1.70;;;;;;;17.46;60.91;99699.28;4952446;28;20024;-75
2022/12/23 03:50:35;;;;;;;3.03;1.70;;;;;;;17.47;61.16;99708.06;4936410;29;20435;-74
2022/12/23 03:53:12;;;;;;;3.10;1.70;;;;;;;17.45;61.03;99708.97;4993079;28;20041;-74
2022/12/23 03:55:45;;;;;;;2.58;1.60;;;;;;;17.44;61.18;99712.53;5052020;28;20028;-74
2022/12/23 03:58:17;;;;;;;2.65;1.52;;;;;;;17.47;61.00;99710.72;5052445;28;20028;-74
2022/12/23 04:01:17;;;;;;;2.97;1.65;;;;;;;17.47;61.27;99716.00;5052449;28;20041;-74
2022/12/23 04:04:07;;;;;;;3.47;1.50;;;;;;;17.45;61.24;99719.53;5048086;28;20171;-74
2022/12/23 04:06:59;;;;;;;3.58;1.80;;;;;;;17.46;61.01;99715.13;5052431;28;20021;-74
2022/12/23 04:09:26;;;;;;;2.95;1.73;;;;;;;17.45;60.92;99714.25;5052062;28;20064;-74
2022/12/23 04:11:52;;;;;;;3.20;1.90;;;;;;;17.44;60.97;99712.53;5052282;28;20025;-74
2022/12/23 04:14:19;;;;;;;3.20;1.63;;;;;;;17.44;60.94;99707.25;5052217;28;20025;-75
2022/12/23 04:16:46;;;;;;;3.15;1.55;;;;;;;17.45;60.95;99708.97;5051989;28;20575;-74
2022/12/23 04:19:12;;;;;;;2.90;1.60;;;;;;;17.45;60.82;99711.63;5054544;28;20478;-74
2022/12/23 04:21:37;;;;;;;4.05;2.00;;;;;;;17.45;60.95;99713.41;5056253;28;20029;-74
2022/12/23 04:24:03;;;;;;;3.28;1.60;;;;;;;17.44;60.99;99711.69;5055701;28;20025;-74
2022/12/23 04:26:28;;;;;;;3.08;1.52;;;;;;;17.44;61.21;99712.53;5056232;28;20043;-74
2022/12/23 04:28:54;;;;;;;3.92;1.90;;;;;;;17.44;61.22;99717.81;5055915;28;20448;-74
2022/12/23 04:31:19;;;;;;;3.80;2.10;;;;;;;17.42;61.24;99713.53;5054635;28;20027;-74
2022/12/23 04:33:44;;;;;;;4.50;2.45;;;;;;;17.43;61.22;99710.84;5055966;28;20381;-74
2022/12/23 04:36:10;;;;;;;3.75;1.60;;;;;;;17.43;60.94;99710.84;5054619;28;20021;-74
2022/12/23 04:38:35;;;;;;;3.45;1.80;;;;;;;17.43;61.15;99708.19;5055610;28;20041;-74
2022/12/23 04:41:01;;;;;;;3.28;1.67;;;;;;;17.44;61.18;99712.53;5055804;28;20028;-74
2022/12/23 04:43:26;;;;;;;3.08;1.67;;;;;;;17.42;60.94;99714.41;5055709;28;20029;-74
2022/12/23 04:45:52;;;;;;;4.03;1.67;;;;;;;17.43;61.27;99716.09;5054695;28;20393;-74
2022/12/23 04:48:18;;;;;;;2.33;1.60;;;;;;;17.41;61.22;99712.69;5055698;28;20490;-74
2022/12/23 04:50:43;;;;;;;3.20;1.63;;;;;;;17.43;61.17;99712.59;5055609;28;20067;-75
2022/12/23 04:53:09;;;;;;;2.67;1.48;;;;;;;17.42;61.13;99708.25;5055006;28;20132;-74
2022/12/23 04:55:34;;;;;;;3.03;1.60;;;;;;;17.42;60.99;99703.84;5055538;28;20021;-74
2022/12/23 04:58:00;;;;;;;3.42;2.03;;;;;;;17.40;61.00;99705.69;5055364;28;20466;-74
2022/12/23 05:00:25;;;;;;;3.63;1.63;;;;;;;17.41;60.90;99712.69;5055515;28;20017;-74
2022/12/23 05:02:50;;;;;;;3.83;1.60;;;;;;;17.41;60.90;99707.41;5055388;28;20111;-74
2022/12/23 05:05:16;;;;;;;2.30;1.30;;;;;;;17.40;60.90;99710.97;5055297;28;20039;-74
2022/12/23 05:07:41;;;;;;;3.80;1.70;;;;;;;17.40;61.18;99716.25;5054979;28;20024;-74
2022/12/23 05:10:08;;;;;;;2.63;1.33;;;;;;;17.41;61.10;99719.72;5055244;28;20393;-74
2022/12/23 05:12:33;;;;;;;2.95;1.80;;;;;;;17.41;61.14;99723.25;5055208;28;20093;-74
2022/12/23 05:14:58;;;;;;;2.85;1.50;;;;;;;17.39;61.20;99711.88;5054978;28;20477;-74
2022/12/23 05:17:24;;;;;;;2.72;1.58;;;;;;;17.39;60.76;99701.31;5054791;28;20037;-74
2022/12/23 05:19:49;;;;;;;2.67;1.40;;;;;;;17.39;61.20;99697.84;5055156;28;20036;-74
2022/12/23 05:22:15;;;;;;;3.03;1.70;;;;;;;17.37;61.02;99687.34;5054747;28;20047;-74
2022/12/23 05:24:40;;;;;;;3.58;1.50;;;;;;;17.40;60.97;99700.44;5054879;28;20029;-74
2022/12/23 05:27:06;;;;;;;3.40;1.70;;;;;;;17.39;61.01;99703.97;5054890;28;20022;-74
2022/12/23 05:29:31;;;;;;;3.28;1.52;;;;;;;17.40;60.92;99704.84;5054193;28;20029;-74
2022/12/23 05:31:56;;;;;;;2.53;1.42;;;;;;;17.37;61.07;99700.53;5054442;28;20029;-74
2022/12/23 05:34:22;;;;;;;3.22;1.70;;;;;;;17.38;61.24;99701.41;5054725;28;20025;-74
2022/12/23 05:36:47;;;;;;;2.78;1.50;;;;;;;17.37;61.17;99705.81;5054465;28;20076;-74
2022/12/23 05:39:13;;;;;;;3.63;1.67;;;;;;;17.38;61.02;99701.41;5054790;28;20448;-74
2022/12/23 05:41:38;;;;;;;3.13;1.50;;;;;;;17.37;60.88;99703.19;5054662;28;20059;-74
2022/12/23 05:44:04;;;;;;;2.83;1.67;;;;;;;17.37;61.05;99697.03;5054321;28;20150;-73
2022/12/23 05:46:29;;;;;;;2.90;1.50;;;;;;;17.37;61.00;99694.41;5054618;28;20504;-74
2022/12/23 05:48:54;;;;;;;3.53;1.60;;;;;;;17.38;60.81;99689.06;5054597;28;20138;-74
2022/12/23 05:51:20;;;;;;;3.97;1.98;;;;;;;17.35;60.98;99686.56;5054189;28;20029;-74
2022/12/23 05:53:45;;;;;;;3.03;1.60;;;;;;;17.35;61.06;99691.84;5054319;28;20029;-74
2022/12/23 05:56:11;;;;;;;3.55;1.67;;;;;;;17.34;61.06;99692.75;5054460;28;20021;-74
2022/12/23 05:58:36;;;;;;;3.28;1.70;;;;;;;17.34;61.20;99703.28;5054473;28;20473;-74
2022/12/23 06:01:03;;;;;;;3.25;2.08;;;;;;;17.35;61.30;99699.75;5053109;28;20028;-74
2022/12/23 06:03:28;;;;;;;3.60;1.63;;;;;;;17.34;60.90;99692.75;5054118;28;20036;-74
2022/12/23 06:05:54;;;;;;;2.92;1.48;;;;;;;17.34;60.96;99700.66;5053800;28;20521;-74
2022/12/23 06:08:19;;;;;;;3.58;1.88;;;;;;;17.33;61.00;99706.03;5054174;28;20029;-74
2022/12/23 06:10:45;;;;;;;3.15;1.73;;;;;;;17.33;61.24;99701.56;5054138;28;20521;-74
2022/12/23 06:13:11;;;;;;;3.08;1.58;;;;;;;17.34;61.11;99695.38;5054212;28;20104;-74
2022/12/23 06:15:36;;;;;;;2.85;1.50;;;;;;;17.34;60.85;99695.38;5053834;28;20111;-74
2022/12/23 06:18:02;;;;;;;2.72;1.60;;;;;;;17.34;61.07;99689.25;5053900;28;20021;-73
2022/12/23 06:20:27;;;;;;;3.35;1.88;;;;;;;17.34;61.11;99692.75;5053752;28;20439;-74
2022/12/23 06:22:52;;;;;;;4.00;1.85;;;;;;;17.32;60.93;99697.22;5053884;28;20029;-74
2022/12/23 06:25:18;;;;;;;2.55;1.50;;;;;;;17.33;61.10;99698.94;5053807;28;20024;-74
2022/12/23 06:27:44;;;;;;;2.80;1.58;;;;;;;17.31;60.96;99696.41;5053792;28;20051;-74
2022/12/23 06:30:10;;;;;;;3.03;1.40;;;;;;;17.30;60.92;99693.81;5053585;28;20033;-74
2022/12/23 06:32:36;;;;;;;3.85;1.80;;;;;;;17.30;61.06;99694.66;5053815;28;20060;-74
2022/12/23 06:35:01;;;;;;;4.22;1.90;;;;;;;17.32;61.21;99697.22;5053281;28;20114;-74
2022/12/23 06:37:27;;;;;;;2.88;1.50;;;;;;;17.29;60.99;99692.09;5053708;28;20021;-74
2022/12/23 06:39:52;;;;;;;3.38;1.48;;;;;;;17.30;61.20;99693.81;5053514;28;20028;-74
2022/12/23 06:42:17;;;;;;;3.17;1.67;;;;;;;17.31;61.27;99690.25;5053322;28;20028;-74
2022/12/23 06:44:43;;;;;;;3.45;1.58;;;;;;;17.30;60.86;99688.53;5053390;28;20477;-74
2022/12/23 06:47:08;;;;;;;2.97;1.60;;;;;;;17.29;60.81;99690.31;5053454;28;20112;-74
2022/12/23 06:49:33;;;;;;;3.30;1.50;;;;;;;17.28;61.21;99695.63;5053106;28;20134;-74
2022/12/23 06:51:59;;;;;;;2.45;1.60;;;;;;;17.28;60.88;99695.63;5053194;28;20013;-74
2022/12/23 06:54:24;;;;;;;3.13;1.80;;;;;;;17.27;61.09;99697.44;5056343;28;20477;-74
2022/12/23 06:56:50;;;;;;;3.45;1.90;;;;;;;17.28;60.96;99700.91;5056203;28;20025;-75
2022/12/23 06:59:15;;;;;;;3.13;1.50;;;;;;;17.27;60.86;99710.63;5058129;28;20053;-74
2022/12/23 07:01:40;;;;;;;3.13;1.65;;;;;;;17.27;60.94;99704.47;5058333;28;20031;-74
2022/12/23 07:04:06;;;;;;;3.63;1.65;;;;;;;17.26;61.02;99702.75;5057896;28;20098;-74
2022/12/23 07:06:31;;;;;;;3.35;1.58;;;;;;;17.25;60.95;99701.06;5057127;28;20021;-74
2022/12/23 07:08:57;;;;;;;2.95;1.50;;;;;;;17.27;60.80;99704.47;5054929;28;20025;-74
2022/12/23 07:11:22;;;;;;;2.97;1.77;;;;;;;17.24;61.07;99688.78;5054802;28;20052;-74
2022/12/23 07:13:48;;;;;;;3.25;1.75;;;;;;;17.23;60.94;99698.47;5054567;28;20059;-74
2022/12/23 07:16:13;;;;;;;3.05;1.40;;;;;;;17.24;61.05;99696.72;5053779;28;20033;-74
2022/12/23 07:18:38;;;;;;;2.83;1.58;;;;;;;17.22;61.02;99690.63;5053407;28;20021;-74
2022/12/23 07:21:04;;;;;;;2.72;1.77;;;;;;;17.24;61.06;99701.97;5053414;28;20481;-74
2022/12/23 07:23:30;;;;;;;3.65;1.85;;;;;;;17.24;60.96;99707.25;5053110;28;20089;-74
2022/12/23 07:25:55;;;;;;;2.92;1.60;;;;;;;17.22;60.92;99701.16;5053405;28;20166;-74
2022/12/23 07:28:22;;;;;;;3.80;1.75;;;;;;;17.21;60.95;99710.00;5053339;28;20104;-74
2022/12/23 07:30:47;;;;;;;4.00;1.80;;;;;;;17.23;61.23;99713.47;5053255;28;20496;-74
2022/12/23 07:33:13;;;;;;;3.25;2.00;;;;;;;17.22;61.08;99711.72;5052828;28;20029;-73
2022/12/23 07:35:38;;;;;;;2.78;1.60;;;;;;;17.20;60.87;99719.72;5053059;28;20037;-74
2022/12/23 07:38:03;;;;;;;4.35;2.25;;;;;;;17.21;61.11;99715.28;5052743;28;20071;-74
2022/12/23 07:40:29;;;;;;;3.45;1.83;;;;;;;17.18;61.03;99722.41;5052915;28;20032;-74
2022/12/23 07:42:57;;;;;;;2.90;1.60;;;;;;;17.20;60.89;99703.03;5052631;28;20032;-74
2022/12/23 07:45:23;;;;;;;3.08;2.00;;;;;;;17.18;60.96;99695.16;5052230;28;20047;-74
2022/12/23 07:47:55;;;;;;;4.05;1.77;;;;;;;17.21;60.99;99702.09;5052925;28;20449;-74
2022/12/23 07:50:22;;;;;;;3.40;1.77;;;;;;;17.20;60.95;99703.03;5052665;28;20029;-74
2022/12/23 07:52:47;;;;;;;3.60;1.80;;;;;;;17.17;61.21;99701.38;5052469;28;20679;-75
2022/12/23 07:55:13;;;;;;;3.00;1.60;;;;;;;17.16;61.21;99703.13;5056690;28;20177;-74
2022/12/23 07:57:39;;;;;;;3.35;1.85;;;;;;;17.20;61.18;99708.28;5056849;28;20083;-74
2022/12/23 08:00:06;;;;;;;2.72;1.60;;;;;;;17.19;61.15;99717.97;5056344;28;20434;-74
2022/12/23 08:02:32;;;;;;;3.13;1.95;;;;;;;17.17;61.08;99710.16;5056629;28;20437;-74
2022/12/23 08:04:57;;;;;;;2.88;1.60;;;;;;;17.20;60.89;99708.28;5056363;28;20057;-74
2022/12/23 08:07:22;;;;;;;2.85;1.67;;;;;;;17.18;61.16;99701.31;5056544;28;20025;-74
2022/12/23 08:09:48;;;;;;;3.75;1.90;;;;;;;17.18;60.80;99698.66;5056351;28;20104;-74
2022/12/23 08:12:13;;;;;;;3.35;1.67;;;;;;;17.17;61.06;99694.31;5056337;28;20116;-74
2022/12/23 08:14:39;;;;;;;3.17;1.70;;;;;;;17.18;61.07;99696.03;5056046;28;20448;-74
2022/12/23 08:17:04;;;;;;;3.22;1.70;;;;;;;17.18;60.90;99703.94;5055505;28;20112;-74
2022/12/23 08:19:29;;;;;;;3.45;1.60;;;;;;;17.18;60.96;99698.66;5056214;28;20543;-74
2022/12/23 08:21:55;;;;;;;3.38;1.70;;;;;;;17.20;60.68;99693.34;5056315;28;20017;-74
2022/12/23 08:24:20;;;;;;;4.03;1.95;;;;;;;17.14;60.77;99694.44;5056150;28;20021;-74
2022/12/23 08:26:45;;;;;;;3.28;1.80;;;;;;;17.14;60.97;99683.88;5056069;28;20135;-74
2022/12/23 08:29:11;;;;;;;4.20;1.85;;;;;;;17.16;61.03;99695.22;5055763;28;20108;-74
2022/12/23 08:31:36;;;;;;;3.15;1.50;;;;;;;17.13;60.98;99698.00;5056083;28;20021;-74
2022/12/23 08:34:02;;;;;;;3.58;1.80;;;;;;;17.15;60.99;99697.94;5055863;28;20021;-74
2022/12/23 08:36:31;;;;;;;3.25;1.77;;;;;;;17.13;60.89;99687.44;5056001;28;20040;-74
2022/12/23 08:38:58;;;;;;;3.80;2.00;;;;;;;17.13;60.87;99687.44;5055944;28;20036;-74
2022/12/23 08:41:28;;;;;;;3.40;1.85;;;;;;;17.14;61.21;99681.25;5054513;28;20021;-74
2022/12/23 08:43:53;;;;;;;3.80;1.90;;;;;;;17.13;60.74;99683.94;5055282;28;20512;-74
2022/12/23 08:46:19;;;;;;;2.97;1.60;;;;;;;17.11;61.02;99685.81;5055665;28;20063;-74
2022/12/23 08:48:45;;;;;;;4.00;1.70;;;;;;;17.13;61.15;99676.91;5055650;28;20017;-74
2022/12/23 08:51:13;;;;;;;3.13;1.70;;;;;;;17.13;61.04;99679.53;5055703;28;20492;-74
2022/12/23 08:53:39;;;;;;;3.28;1.83;;;;;;;17.15;60.82;99669.78;5055242;28;20021;-74
2022/12/23 08:56:13;;;;;;;3.72;1.95;;;;;;;17.13;60.86;99661.09;5055194;28;20048;-74
2022/12/23 08:58:41;;;;;;;4.47;2.38;;;;;;;17.13;60.91;99657.56;5055133;28;20104;-74
2022/12/23 09:01:09;;;;;;;3.58;2.10;;;;;;;17.13;61.03;99661.09;5055591;28;20024;-74
2022/12/23 09:03:36;;;;;;;3.50;1.92;;;;;;;17.14;60.89;99667.22;5055254;28;20039;-74
2022/12/23 09:06:19;;;;;;;3.40;1.85;;;;;;;17.12;61.22;99675.19;5053899;28;20021;-74
2022/12/23 09:08:45;;;;;;;4.68;2.20;;;;;;;17.15;60.71;99692.66;5055338;28;20025;-74
2022/12/23 09:11:13;;;;;;;3.50;2.00;;;;;;;17.13;60.99;99692.72;5055210;28;20035;-74
2022/12/23 09:13:39;;;;;;;3.63;2.17;;;;;;;17.15;60.90;99690.88;5054911;28;20025;-74
2022/12/23 09:16:06;;;;;;;4.00;2.30;;;;;;;17.15;61.01;99685.59;5054838;28;20045;-74
2022/12/23 09:18:32;;;;;;;3.88;2.25;;;;;;;17.13;60.92;99676.91;5055186;28;20029;-74
2022/12/23 09:21:06;;;;;;;4.07;2.20;;;;;;;17.15;60.83;99671.56;5055182;28;20032;-74
2022/12/23 09:23:33;;;;;;;4.45;2.25;;;;;;;17.14;60.84;99661.97;5054920;28;20029;-73
2022/12/23 09:25:59;;;;;;;4.50;2.20;;;;;;;17.14;61.08;99665.44;5054949;28;20444;-74
2022/12/23 09:28:24;;;;;;;4.22;2.30;;;;;;;17.16;60.81;99675.91;5054634;28;20467;-74
2022/12/23 09:30:50;;;;;;;4.32;2.13;;;;;;;17.15;60.77;99675.06;5054867;28;20131;-74
2022/12/23 09:33:16;;;;;;;3.45;1.80;;;;;;;17.14;60.88;99669.88;5054771;28;20024;-74
2022/12/23 09:35:42;;;;;;;3.63;1.95;;;;;;;17.16;61.01;99687.31;5054951;28;20473;-74
2022/12/23 09:38:07;;;;;;;3.92;2.00;;;;;;;17.17;60.92;99683.78;5054787;28;20481;-74
2022/12/23 09:40:36;;;;;;;3.63;1.98;;;;;;;17.17;60.66;99694.31;5054708;28;20048;-74
2022/12/23 09:43:16;;;;;;;3.72;2.00;;;;;;;17.17;60.74;99693.47;5054202;28;20063;-74
2022/12/23 09:45:54;;;;;;;2.85;1.77;;;;;;;17.18;60.70;99700.44;5053676;28;20037;-74
2022/12/23 09:48:24;;;;;;;3.90;1.92;;;;;;;17.17;60.69;99707.50;5054646;28;20090;-74
2022/12/23 09:50:50;;;;;;;2.58;1.63;;;;;;;17.20;61.03;99703.03;5054487;28;20078;-73
2022/12/23 09:53:21;;;;;;;3.78;2.00;;;;;;;17.17;60.94;99699.59;5054159;28;20393;-74
2022/12/23 09:55:59;;;;;;;4.47;2.00;;;;;;;17.18;61.11;99703.94;5054201;28;20025;-74
2022/12/23 09:58:53;;;;;;;3.30;1.85;;;;;;;17.20;60.79;99697.75;5054407;28;20505;-73
2022/12/23 10:01:35;;;;;;;4.18;1.90;;;;;;;17.21;61.01;99710.00;5054315;28;20017;-74
2022/12/23 10:04:25;;;;;;;3.47;2.03;;;;;;;17.18;60.97;99717.13;5054111;28;20039;-74
2022/12/23 10:07:24;;;;;;;3.50;1.90;;;;;;;17.20;60.68;99708.28;5054189;28;20033;-74
2022/12/23 10:09:53;;;;;;;3.83;1.92;;;;;;;17.20;60.79;99703.03;4995845;28;20041;-74
2022/12/23 10:12:43;;;;;;;3.65;2.05;;;;;;;17.21;61.00;99694.19;5011884;28;20026;-74
2022/12/23 10:15:29;;;;;;;3.17;1.80;;;;;;;17.22;61.06;99701.16;5012042;28;20030;-74
2022/12/23 10:18:01;;;;;;;3.40;1.88;;;;;;;17.18;60.89;99698.66;5011844;28;20046;-74
2022/12/23 10:20:46;;;;;;;3.72;2.20;;;;;;;17.23;61.02;99687.09;5012076;28;20037;-74
2022/12/23 10:23:16;;;;;;;4.13;2.10;;;;;;;17.23;60.85;99692.34;5011802;28;20030;-74
2022/12/23 10:25:51;;;;;;;4.38;1.80;;;;;;;17.23;60.96;99700.28;5011753;28;20030;-74
2022/12/23 10:28:17;;;;;;;3.65;2.08;;;;;;;17.23;60.96;99708.19;5011947;28;20129;-74
2022/12/23 10:30:50;;;;;;;4.88;2.03;;;;;;;17.23;60.83;99724.84;5011813;28;20156;-74
2022/12/23 10:33:26;;;;;;;3.83;1.98;;;;;;;17.23;60.86;99730.13;5011616;28;20427;-74
2022/12/23 10:36:41;;;;;;;3.22;1.80;;;;;;;17.24;60.63;99752.09;5011847;28;20040;-74
2022/12/23 10:39:27;;;;;;;3.97;2.20;;;;;;;17.26;60.69;99751.09;4953222;29;20035;-74
2022/12/23 10:42:17;;;;;;;3.60;1.85;;;;;;;17.25;60.98;99743.25;4953358;29;20027;-74
2022/12/23 10:45:21;;;;;;;3.00;1.70;;;;;;;17.26;60.81;99745.84;4953189;29;20031;-74
2022/12/23 10:48:22;;;;;;;3.95;2.20;;;;;;;17.25;60.77;99738.81;4989042;28;20125;-74
2022/12/23 10:51:00;;;;;;;3.70;1.90;;;;;;;17.27;60.86;99730.84;4992027;28;20372;-74
2022/12/23 10:53:48;;;;;;;3.20;1.65;;;;;;;17.27;60.82;99720.31;4991664;28;20489;-74
2022/12/23 10:56:14;;;;;;;3.35;1.92;;;;;;;17.27;60.96;99707.13;4991540;28;20042;-74
2022/12/23 10:58:44;;;;;;;3.28;1.80;;;;;;;17.28;60.75;99693.00;4991461;28;20030;-74
2022/12/23 11:01:12;;;;;;;4.13;2.00;;;;;;;17.28;61.00;99674.53;4991722;28;20038;-74
2022/12/23 11:03:53;;;;;;;3.95;2.00;;;;;;;17.29;60.68;99671.00;4991583;28;20076;-74
2022/12/23 11:06:19;;;;;;;3.67;2.10;;;;;;;17.29;61.06;99676.28;4991588;28;20042;-74
2022/12/23 11:08:45;;;;;;;3.92;2.38;;;;;;;17.27;60.97;99678.97;4990836;28;20034;-74
2022/12/23 11:11:10;;;;;;;4.18;2.20;;;;;;;17.29;60.87;99665.72;4991657;28;20030;-74
2022/12/23 11:13:40;;;;;;;4.22;2.42;;;;;;;17.31;60.88;99671.78;5041043;28;20448;-74
2022/12/23 11:16:25;;;;;;;3.17;1.77;;;;;;;17.31;60.85;99671.78;5052805;28;20041;-74
2022/12/23 11:18:51;;;;;;;4.15;2.10;;;;;;;17.29;61.01;99665.72;5052933;28;20120;-74
2022/12/23 11:21:17;;;;;;;3.40;1.90;;;;;;;17.30;60.72;99652.44;5056875;28;20029;-74
2022/12/23 11:23:42;;;;;;;4.25;2.22;;;;;;;17.32;60.89;99662.94;5054143;28;20043;-75
2022/12/23 11:26:12;;;;;;;3.85;2.30;;;;;;;17.31;60.80;99666.50;5057240;28;20025;-75
2022/12/23 11:28:47;;;;;;;4.55;2.40;;;;;;;17.33;60.80;99658.53;5057252;28;20025;-75
2022/12/23 11:31:13;;;;;;;4.82;2.22;;;;;;;17.33;60.86;99664.66;5057812;28;20072;-75
2022/12/23 11:33:59;;;;;;;3.78;2.15;;;;;;;17.35;61.03;99670.75;5056893;28;20037;-74
2022/12/23 11:36:26;;;;;;;;;;;;;;;17.37;60.82;99673.28;5055282;28;20020;-73
2022/12/23 11:39:13;;;;;;;3.58;1.90;;;;;;;17.36;60.91;99666.31;5053898;28;19919;-74
2022/12/23 11:41:43;;;;;;;;;;;;;;;17.37;60.88;99666.25;5054082;28;20103;-74
2022/12/23 11:44:49;;;;;;;3.58;2.20;;;;;;;17.37;60.75;99668.00;5053305;28;20023;-74
2022/12/23 11:47:36;;;;;;;5.00;2.33;;;;;;;17.38;60.71;99675.03;5053501;28;20033;-74
2022/12/23 11:50:23;;;;;;;5.75;2.30;;;;;;;17.38;60.79;99664.47;5053165;28;20025;-74
2022/12/23 11:53:01;;;;;;;3.13;2.08;;;;;;;17.37;60.63;99660.97;5052532;28;20056;-74
2022/12/23 11:55:31;;;;;;;3.30;1.70;;;;;;;17.39;61.04;99647.72;5052526;28;20385;-74
2022/12/23 11:57:59;;;;;;;4.70;2.13;;;;;;;17.39;60.62;99630.09;5051577;28;20033;-74
2022/12/23 12:00:29;;;;;;;3.63;2.17;;;;;;;17.39;60.90;99630.09;5052728;28;20033;-74
2022/12/23 12:02:58;;;;;;;3.05;1.60;;;;;;;17.39;60.90;99619.56;5052467;28;20037;-74
2022/12/23 12:05:37;;;;;;;3.40;2.00;;;;;;;17.40;60.78;99616.00;5052556;28;20056;-74
2022/12/23 12:08:12;;;;;;;3.03;1.88;;;;;;;17.40;60.96;99630.97;5052373;28;20033;-74
2022/12/23 12:10:39;;;;;;;4.20;2.20;;;;;;;17.41;61.02;99623.00;5052556;28;20064;-74
2022/12/23 12:13:18;;;;;;;3.90;2.00;;;;;;;17.42;60.84;99627.34;5052164;28;20255;-74
2022/12/23 12:16:03;;;;;;;4.78;2.47;;;;;;;17.42;60.94;99608.88;5052275;28;20079;-74